Flugplatz Düsseldorf International

Bericht für EDDL

vom 25.08. um 19:50 UTC

Wind 4 kt aus 360°

Sichtweite 10 km oder mehr

gute Sicht, keine Wolken < 5000 ft, keine CB, keine Wettererscheinungen (CAVOK)

Temperatur 25.0°C

Taupunkt 15.0°C

Luftfeuchtigkeit 54%

Luftdruck 1019 hPa

keine wesentliche Wetteränderung innerhalb den nächsten 2 Stunden zu erwarten

EDDL 251950Z 36004KT CAVOK 25/15 Q1019 NOSIG

Prognose für EDDL

vom 25.08. um 00:00 UTC

Zwischen 00:00 UTC und 00:00 UTC

variable Windrichtung mit 3 kt

Sichtweite 10 km oder mehr

keine signifikanten Wettererscheinungen

keine Wolken


Am 26.08. zwischen 00:00 und 00:00 UTC übergehend zu

Wind 6 kt aus 30°

Sichtweite 10 km oder mehr

keine signifikanten Wettererscheinungen

keine Wolken


Am 26.08. zwischen 00:00 UTC und 00:00 UTC zeitweise mit einer Wahrscheinlichkeit von 30%

Code: TSRA

aufgebrochene Bewölkung in 4000 ft

TAF EDDL 251700Z 2518/2624 VRB03KT CAVOK BECMG 2610/2612 03006KT PROB30 TEMPO 2614/2617 TSRA BKN040CB
Impressum